Map

Track Data

SID SEASON NUMBER BASIN SUBBASIN NAME ISO_TIME NATURE LAT LON WMO_WIND WMO_PRES WMO_AGENCY TRACK_TYPE DIST2LAND LANDFALL IFLAG USA_AGENCY USA_ATCF_ID USA_LAT USA_LON USA_RECORD USA_STATUS USA_WIND USA_PRES USA_SSHS USA_R34_NE USA_R34_SE USA_R34_SW USA_R34_NW USA_R50_NE USA_R50_SE USA_R50_SW USA_R50_NW USA_R64_NE USA_R64_SE USA_R64_SW USA_R64_NW USA_POCI USA_ROCI USA_RMW USA_EYE TOKYO_LAT TOKYO_LON TOKYO_GRADE TOKYO_WIND TOKYO_PRES TOKYO_R50_DIR TOKYO_R50_LONG TOKYO_R50_SHORT TOKYO_R30_DIR TOKYO_R30_LONG TOKYO_R30_SHORT TOKYO_LAND CMA_LAT CMA_LON CMA_CAT CMA_WIND CMA_PRES HKO_LAT HKO_LON HKO_CAT HKO_WIND HKO_PRES NEWDELHI_LAT NEWDELHI_LON NEWDELHI_GRADE NEWDELHI_WIND NEWDELHI_PRES NEWDELHI_CI NEWDELHI_DP NEWDELHI_POCI REUNION_LAT REUNION_LON REUNION_TYPE REUNION_WIND REUNION_PRES REUNION_TNUM REUNION_CI REUNION_RMW REUNION_R34_NE REUNION_R34_SE REUNION_R34_SW REUNION_R34_NW REUNION_R50_NE REUNION_R50_SE REUNION_R50_SW REUNION_R50_NW REUNION_R64_NE REUNION_R64_SE REUNION_R64_SW REUNION_R64_NW BOM_LAT BOM_LON BOM_TYPE BOM_WIND BOM_PRES BOM_TNUM BOM_CI BOM_RMW BOM_R34_NE BOM_R34_SE BOM_R34_SW BOM_R34_NW BOM_R50_NE BOM_R50_SE BOM_R50_SW BOM_R50_NW BOM_R64_NE BOM_R64_SE BOM_R64_SW BOM_R64_NW BOM_ROCI BOM_POCI BOM_EYE BOM_POS_METHOD BOM_PRES_METHOD NADI_LAT NADI_LON NADI_CAT NADI_WIND NADI_PRES WELLINGTON_LAT WELLINGTON_LON WELLINGTON_WIND WELLINGTON_PRES DS824_LAT DS824_LON DS824_STAGE DS824_WIND DS824_PRES TD9636_LAT TD9636_LON TD9636_STAGE TD9636_WIND TD9636_PRES TD9635_LAT TD9635_LON TD9635_WIND TD9635_PRES TD9635_ROCI NEUMANN_LAT NEUMANN_LON NEUMANN_CLASS NEUMANN_WIND NEUMANN_PRES MLC_LAT MLC_LON MLC_CLASS MLC_WIND MLC_PRES USA_GUST BOM_GUST BOM_GUST_PER REUNION_GUST REUNION_GUST_PER USA_SEAHGT USA_SEARAD_NE USA_SEARAD_SE USA_SEARAD_SW USA_SEARAD_NW STORM_SPEED STORM_DIR
1884250N15129 1884 31 WP MM NOT_NAMED 1884-09-05 16:00:00 NR 14.7000 128.500 main 428 420 __________O___ -1 14.7000 128.500 4 3 310
1884250N15129 1884 31 WP MM NOT_NAMED 1884-09-05 18:00:00 NR 14.7573 128.431 main 427 420 __________P___ -1 14.7573 128.431 4 3 311
1884250N15129 1884 31 WP MM NOT_NAMED 1884-09-05 21:00:00 NR 14.8531 128.316 main 427 420 __________P___ -1 14.8531 128.316 4 3 311
1884250N15129 1884 31 WP MM NOT_NAMED 1884-09-06 00:00:00 NR 14.9739 128.171 main 427 410 __________P___ -1 14.9739 128.171 4 4 311
1884250N15129 1884 31 WP MM NOT_NAMED 1884-09-06 03:00:00 NR 15.1348 127.978 main 410 403 __________P___ -1 15.1348 127.978 4 5 311
1884250N15129 1884 31 WP MM NOT_NAMED 1884-09-06 04:00:00 NR 15.2000 127.900 main 403 388 __________O___ -1 15.2000 127.900 4 7 311
1884250N15129 1884 31 WP MM NOT_NAMED 1884-09-06 06:00:00 NR 15.3487 127.721 main 388 374 __________P___ -1 15.3487 127.721 4 8 310
1884250N15129 1884 31 WP MM NOT_NAMED 1884-09-06 09:00:00 NR 15.6035 127.408 main 374 359 __________P___ -1 15.6035 127.408 4 8 310
1884250N15129 1884 31 WP MM NOT_NAMED 1884-09-06 12:00:00 NR 15.8713 127.064 main 366 348 __________P___ -1 15.8713 127.064 4 8 308
1884250N15129 1884 31 WP MM NOT_NAMED 1884-09-06 15:00:00 NR 16.1240 126.714 main 348 348 __________P___ -1 16.1240 126.714 4 8 306
1884250N15129 1884 31 WP MM NOT_NAMED 1884-09-06 16:00:00 NR 16.2000 126.600 main 348 341 __________O___ -1 16.2000 126.600 4 7 303
1884250N15129 1884 31 WP MM NOT_NAMED 1884-09-06 18:00:00 NR 16.3201 126.394 main 342 335 __________P___ -1 16.3201 126.394 4 7 299
1884250N15129 1884 31 WP MM NOT_NAMED 1884-09-06 21:00:00 NR 16.4750 126.091 main 340 328 __________P___ -1 16.4750 126.091 4 6 297
1884250N15129 1884 31 WP MM NOT_NAMED 1884-09-07 00:00:00 NR 16.6136 125.794 main 332 319 __________P___ -1 16.6136 125.794 4 6 296
1884250N15129 1884 31 WP MM NOT_NAMED 1884-09-07 03:00:00 NR 16.7515 125.499 main 319 308 __________P___ -1 16.7515 125.499 4 6 296
1884250N15129 1884 31 WP MM NOT_NAMED 1884-09-07 04:00:00 NR 16.8000 125.400 main 308 287 __________O___ -1 16.8000 125.400 4 7 301
1884250N15129 1884 31 WP MM NOT_NAMED 1884-09-07 06:00:00 NR 16.9160 125.205 main 287 255 __________P___ -1 16.9160 125.205 4 7 302
1884250N15129 1884 31 WP MM NOT_NAMED 1884-09-07 09:00:00 NR 17.0966 124.913 main 255 225 __________P___ -1 17.0966 124.913 4 7 303
1884250N15129 1884 31 WP MM NOT_NAMED 1884-09-07 12:00:00 NR 17.2767 124.616 main 225 196 __________P___ -1 17.2767 124.616 4 7 301
1884250N15129 1884 31 WP MM NOT_NAMED 1884-09-07 15:00:00 NR 17.4470 124.307 main 196 189 __________P___ -1 17.4470 124.307 4 7 299
1884250N15129 1884 31 WP MM NOT_NAMED 1884-09-07 16:00:00 NR 17.5000 124.200 main 189 172 __________O___ -1 17.5000 124.200 4 7 295
1884250N15129 1884 31 WP MM NOT_NAMED 1884-09-07 18:00:00 NR 17.5974 123.975 main 172 134 __________P___ -1 17.5974 123.975 4 7 293
1884250N15129 1884 31 WP MM NOT_NAMED 1884-09-07 21:00:00 NR 17.7309 123.626 main 134 110 __________P___ -1 17.7309 123.626 4 7 291
1884250N15129 1884 31 WP MM NOT_NAMED 1884-09-08 00:00:00 NR 17.8521 123.269 main 114 71 __________P___ -1 17.8521 123.269 4 7 289
1884250N15129 1884 31 WP MM NOT_NAMED 1884-09-08 03:00:00 NR 17.9641 122.916 main 71 62 __________P___ -1 17.9641 122.916 4 7 288
1884250N15129 1884 31 WP MM NOT_NAMED 1884-09-08 04:00:00 NR 18.0000 122.800 main 62 38 __________O___ -1 18.0000 122.800 4 7 290
1884250N15129 1884 31 WP MM NOT_NAMED 1884-09-08 06:00:00 NR 18.0774 122.580 main 38 10 __________P___ -1 18.0774 122.580 4 7 290
1884250N15129 1884 31 WP MM NOT_NAMED 1884-09-08 09:00:00 NR 18.1875 122.257 main 10 0 __________P___ -1 18.1875 122.257 4 6 289
1884250N15129 1884 31 WP MM NOT_NAMED 1884-09-08 12:00:00 NR 18.2876 121.936 main 0 0 __________P___ -1 18.2876 121.936 4 6 287
1884250N15129 1884 31 WP MM NOT_NAMED 1884-09-08 15:00:00 NR 18.3745 121.610 main 0 0 __________P___ -1 18.3745 121.610 4 6 285
1884250N15129 1884 31 WP MM NOT_NAMED 1884-09-08 16:00:00 NR 18.4000 121.500 main 0 0 __________O___ -1 18.4000 121.500 4 6 282
1884250N15129 1884 31 WP MM NOT_NAMED 1884-09-08 18:00:00 NR 18.4365 121.290 main 0 0 __________P___ -1 18.4365 121.290 4 6 279
1884250N15129 1884 31 WP MM NOT_NAMED 1884-09-08 21:00:00 NR 18.4786 120.970 main 0 0 __________P___ -1 18.4786 120.970 4 6 278
1884250N15129 1884 31 WP MM NOT_NAMED 1884-09-09 00:00:00 NR 18.5197 120.627 main 11 11 __________P___ -1 18.5197 120.627 4 7 278
1884250N15129 1884 31 WP MM NOT_NAMED 1884-09-09 03:00:00 NR 18.5754 120.241 main 47 47 __________P___ -1 18.5754 120.241 4 8 279
1884250N15129 1884 31 WP MM NOT_NAMED 1884-09-09 04:00:00 NR 18.6000 120.100 main 57 57 __________O___ -1 18.6000 120.100 4 9 282
1884250N15129 1884 31 WP MM NOT_NAMED 1884-09-09 06:00:00 NR 18.6691 119.785 main 90 90 __________P___ -1 18.6691 119.785 4 10 284
1884250N15129 1884 31 WP MM NOT_NAMED 1884-09-09 09:00:00 NR 18.7915 119.268 main 144 154 __________P___ -1 18.7915 119.268 4 10 284
1884250N15129 1884 31 WP MM NOT_NAMED 1884-09-09 12:00:00 NR 18.9253 118.723 main 207 207 __________P___ -1 18.9253 118.723 4 11 284
1884250N15129 1884 31 WP MM NOT_NAMED 1884-09-09 15:00:00 NR 19.0581 118.177 main 264 274 __________P___ -1 19.0581 118.177 4 11 284
1884250N15129 1884 31 WP MM NOT_NAMED 1884-09-09 16:00:00 NR 19.1000 118.000 main 284 284 __________O___ -1 19.1000 118.000 4 10 281
1884250N15129 1884 31 WP MM NOT_NAMED 1884-09-09 18:00:00 NR 19.1456 117.679 main 315 315 __________P___ -1 19.1456 117.679 4 9 278
1884250N15129 1884 31 WP MM NOT_NAMED 1884-09-09 21:00:00 NR 19.2074 117.210 main 368 368 __________P___ -1 19.2074 117.210 4 9 279
1884250N15129 1884 31 WP MM NOT_NAMED 1884-09-10 00:00:00 NR 19.2921 116.744 main 391 372 __________P___ -1 19.2921 116.744 4 9 284
1884250N15129 1884 31 WP MM NOT_NAMED 1884-09-10 03:00:00 NR 19.4341 116.265 main 372 357 __________P___ -1 19.4341 116.265 4 10 289
1884250N15129 1884 31 WP MM NOT_NAMED 1884-09-10 04:00:00 NR 19.5000 116.100 main 357 323 __________O___ -1 19.5000 116.100 4 11 294
1884250N15129 1884 31 WP MM NOT_NAMED 1884-09-10 06:00:00 NR 19.6556 115.727 main 323 270 __________P___ -1 19.6556 115.727 4 12 297
1884250N15129 1884 31 WP MM NOT_NAMED 1884-09-10 09:00:00 NR 19.9516 115.148 main 270 225 __________P___ -1 19.9516 115.148 4 13 301
1884250N15129 1884 31 WP MM NOT_NAMED 1884-09-10 12:00:00 NR 20.3166 114.579 main 225 176 __________P___ -1 20.3166 114.579 4 13 308
1884250N15129 1884 31 WP MM NOT_NAMED 1884-09-10 15:00:00 NR 20.7444 114.057 main 176 145 __________P___ -1 20.7444 114.057 4 13 313
1884250N15129 1884 31 WP MM NOT_NAMED 1884-09-10 16:00:00 NR 20.9000 113.900 main 145 99 __________O___ -1 20.9000 113.900 4 13 319
1884250N15129 1884 31 WP MM NOT_NAMED 1884-09-10 18:00:00 NR 21.2389 113.598 main 99 23 __________P___ -1 21.2389 113.598 4 13 324
1884250N15129 1884 31 WP MM NOT_NAMED 1884-09-10 21:00:00 NR 21.7987 113.202 main 23 0 __________P___ -1 21.7987 113.202 4 13 330
1884250N15129 1884 31 WP MM NOT_NAMED 1884-09-11 00:00:00 NR 22.3781 112.883 main 0 0 __________P___ -1 22.3781 112.883 4 12 336
1884250N15129 1884 31 WP MM NOT_NAMED 1884-09-11 03:00:00 NR 22.9302 112.654 main 0 0 __________P___ -1 22.9302 112.654 4 12 340
1884250N15129 1884 31 WP MM NOT_NAMED 1884-09-11 04:00:00 NR 23.1000 112.600 main 0 0 __________O___ -1 23.1000 112.600 4 10 344
1884250N15129 1884 31 WP MM NOT_NAMED 1884-09-11 06:00:00 NR 23.3896 112.509 main 0 0 __________P___ -1 23.3896 112.509 4 8 349
1884250N15129 1884 31 WP MM NOT_NAMED 1884-09-11 09:00:00 NR 23.7801 112.455 main 0 0 __________P___ -1 23.7801 112.455 4 8 0
1884250N15129 1884 31 WP MM NOT_NAMED 1884-09-11 12:00:00 NR 24.1375 112.481 main 0 0 __________P___ -1 24.1375 112.481 4 7 8
1884250N15129 1884 31 WP MM NOT_NAMED 1884-09-11 15:00:00 NR 24.4835 112.564 main 0 0 __________P___ -1 24.4835 112.564 4 7 13
1884250N15129 1884 31 WP MM NOT_NAMED 1884-09-11 16:00:00 NR 24.6000 112.600 main 0 0 __________O___ -1 24.6000 112.600 4 8 12
1884250N15129 1884 31 WP MM NOT_NAMED 1884-09-11 18:00:00 NR 24.8552 112.653 main 0 0 __________P___ -1 24.8552 112.653 4 8 13
1884250N15129 1884 31 WP MM NOT_NAMED 1884-09-11 21:00:00 NR 25.2381 112.769 main 0 0 __________P___ -1 25.2381 112.769 4 8 18
1884250N15129 1884 31 WP MM NOT_NAMED 1884-09-12 00:00:00 NR 25.6156 112.928 main 0 0 __________P___ -1 25.6156 112.928 4 8 23
1884250N15129 1884 31 WP MM NOT_NAMED 1884-09-12 03:00:00 NR 25.9816 113.126 main 0 0 __________P___ -1 25.9816 113.126 4 8 27
1884250N15129 1884 31 WP MM NOT_NAMED 1884-09-12 04:00:00 NR 26.1000 113.200 main 0 0 __________O___ -1 26.1000 113.200 4 8 31
1884250N15129 1884 31 WP MM NOT_NAMED 1884-09-12 06:00:00 NR 26.3334 113.357 main 0 0 __________P___ -1 26.3334 113.357 4 8 34
1884250N15129 1884 31 WP MM NOT_NAMED 1884-09-12 09:00:00 NR 26.6710 113.625 main 0 0 __________P___ -1 26.6710 113.625 4 8 37
1884250N15129 1884 31 WP MM NOT_NAMED 1884-09-12 12:00:00 NR 26.9935 113.914 main 0 0 __________P___ -1 26.9935 113.914 4 8 39
1884250N15129 1884 31 WP MM NOT_NAMED 1884-09-12 15:00:00 NR 27.3009 114.206 main 0 0 __________P___ -1 27.3009 114.206 4 8 40
1884250N15129 1884 31 WP MM NOT_NAMED 1884-09-12 16:00:00 NR 27.4000 114.300 main 0 0 __________O___ -1 27.4000 114.300 4 8 40
1884250N15129 1884 31 WP MM NOT_NAMED 1884-09-12 18:00:00 NR 27.5935 114.482 main 0 0 __________P___ -1 27.5935 114.482 4 7 39
1884250N15129 1884 31 WP MM NOT_NAMED 1884-09-12 21:00:00 NR 27.8738 114.739 main 0 0 __________P___ -1 27.8738 114.739 4 7 39
1884250N15129 1884 31 WP MM NOT_NAMED 1884-09-13 00:00:00 NR 28.1453 114.984 main 0 0 __________P___ -1 28.1453 114.984 4 7 38
1884250N15129 1884 31 WP MM NOT_NAMED 1884-09-13 03:00:00 NR 28.4117 115.221 main 0 0 __________P___ -1 28.4117 115.221 4 7 38
1884250N15129 1884 31 WP MM NOT_NAMED 1884-09-13 04:00:00 NR 28.5000 115.300 main 0 __________O___ -1 28.5000 115.300 4 7 38

Digital Typhoon Data and Search

About IBTrACS Database

This database is a web-friendly format of International Best Track Archive for Climate Stewardship (IBTrACS), a global best track data archive curated by NOAA dating back to 1842.

Updated: 2021-10-08